createdAt,value
2023-05-18T00:00:11.142Z,7.40
2023-05-18T00:02:38.368Z,7.40
2023-05-18T00:05:05.830Z,7.40
2023-05-18T00:07:34.058Z,7.30
2023-05-18T00:10:02.016Z,7.30
2023-05-18T00:12:29.199Z,7.30
2023-05-18T00:14:56.428Z,7.20
2023-05-18T00:17:23.696Z,7.20
2023-05-18T00:19:50.832Z,7.10
2023-05-18T00:22:19.106Z,7.10
2023-05-18T00:24:47.507Z,7.00
2023-05-18T00:27:15.205Z,7.00
2023-05-18T00:29:42.210Z,6.90
2023-05-18T00:32:09.954Z,6.90
2023-05-18T00:34:37.562Z,6.80
2023-05-18T00:37:04.754Z,6.70
2023-05-18T00:39:31.860Z,6.70
2023-05-18T00:41:59.041Z,6.60
2023-05-18T00:44:26.406Z,6.60
2023-05-18T00:46:53.474Z,6.50
2023-05-18T00:49:20.722Z,6.50
2023-05-18T00:51:48.460Z,6.40
2023-05-18T00:54:16.801Z,6.30
2023-05-18T00:56:46.276Z,6.20
2023-05-18T00:59:13.505Z,6.20
2023-05-18T01:01:46.286Z,6.20
2023-05-18T01:04:16.757Z,6.20
2023-05-18T01:06:46.429Z,6.10
2023-05-18T01:09:14.426Z,6.10
2023-05-18T01:11:53.153Z,6.00
2023-05-18T01:14:38.498Z,6.00
2023-05-18T01:17:17.582Z,5.90
2023-05-18T01:20:09.478Z,5.80
2023-05-18T01:23:14.201Z,5.80
2023-05-18T01:26:01.558Z,5.70
2023-05-18T01:28:33.567Z,5.70
2023-05-18T01:31:01.596Z,5.70
2023-05-18T01:33:29.020Z,5.60
2023-05-18T01:35:56.287Z,5.60
2023-05-18T01:38:27.424Z,5.60
2023-05-18T01:41:06.459Z,5.50
2023-05-18T01:43:42.936Z,5.50
2023-05-18T01:46:41.747Z,5.40
2023-05-18T01:49:17.737Z,5.40
2023-05-18T01:51:46.639Z,5.40
2023-05-18T01:54:17.536Z,5.30
2023-05-18T01:56:45.645Z,5.30
2023-05-18T01:59:16.405Z,5.30
2023-05-18T02:01:45.282Z,5.30
2023-05-18T02:04:13.124Z,5.20
2023-05-18T02:06:40.363Z,5.20
2023-05-18T02:09:09.172Z,5.20
2023-05-18T02:11:36.288Z,5.10
2023-05-18T02:14:03.286Z,5.10
2023-05-18T02:16:30.398Z,5.10
2023-05-18T02:18:58.034Z,5.00
2023-05-18T02:21:26.117Z,5.00
2023-05-18T02:23:53.346Z,5.00
2023-05-18T02:26:20.982Z,5.00
2023-05-18T02:28:52.589Z,5.00
2023-05-18T02:31:19.666Z,5.00
2023-05-18T02:33:46.845Z,5.00
2023-05-18T02:36:14.702Z,5.00
2023-05-18T02:38:43.816Z,4.90
2023-05-18T02:41:12.268Z,4.90
2023-05-18T02:43:39.601Z,4.80
2023-05-18T02:46:08.092Z,4.80
2023-05-18T02:48:35.629Z,4.80
2023-05-18T02:51:02.680Z,4.80
2023-05-18T02:53:29.703Z,4.80
2023-05-18T02:56:06.057Z,4.70
2023-05-18T02:58:43.778Z,4.70
2023-05-18T03:01:18.427Z,4.70
2023-05-18T03:03:51.435Z,4.70
2023-05-18T03:06:22.309Z,4.70
2023-05-18T03:08:56.378Z,4.60
2023-05-18T03:11:30.014Z,4.60
2023-05-18T03:13:57.026Z,4.50
2023-05-18T03:16:28.534Z,4.50
2023-05-18T03:18:58.857Z,4.50
2023-05-18T03:21:33.780Z,4.50
2023-05-18T03:24:01.287Z,4.50
2023-05-18T03:26:31.027Z,4.50
2023-05-18T03:28:58.934Z,4.50
2023-05-18T03:31:27.277Z,4.50
2023-05-18T03:33:56.782Z,4.50
2023-05-18T03:36:25.971Z,4.50
2023-05-18T03:38:53.058Z,4.50
2023-05-18T03:41:22.162Z,4.50
2023-05-18T03:43:50.766Z,4.50
2023-05-18T03:46:17.873Z,4.50
2023-05-18T03:48:45.652Z,4.50
2023-05-18T03:51:13.287Z,4.50
2023-05-18T03:53:42.184Z,4.60
2023-05-18T03:56:09.222Z,4.60
2023-05-18T03:58:36.266Z,4.60
2023-05-18T04:01:04.349Z,4.70
2023-05-18T04:03:31.439Z,4.70
2023-05-18T04:05:58.468Z,4.70
2023-05-18T04:08:25.760Z,4.80
2023-05-18T04:10:52.978Z,4.90
2023-05-18T04:13:20.153Z,5.00
2023-05-18T04:15:47.777Z,5.00
2023-05-18T04:18:14.855Z,5.10
2023-05-18T04:20:46.015Z,5.20
2023-05-18T04:23:13.391Z,5.30
2023-05-18T04:25:41.672Z,5.40
2023-05-18T04:28:09.894Z,5.50
2023-05-18T04:30:37.863Z,5.60
2023-05-18T04:33:07.068Z,5.80
2023-05-18T04:35:35.132Z,5.90
2023-05-18T04:38:02.820Z,6.00
2023-05-18T04:40:34.167Z,6.20
2023-05-18T04:43:02.014Z,6.40
2023-05-18T04:45:34.357Z,6.50
2023-05-18T04:48:02.087Z,6.70
2023-05-18T04:50:30.063Z,6.80
2023-05-18T04:52:58.106Z,7.00
2023-05-18T04:55:27.712Z,7.10
2023-05-18T04:57:58.027Z,7.30
2023-05-18T05:00:26.673Z,7.40
2023-05-18T05:02:54.237Z,7.50
2023-05-18T05:05:22.692Z,7.70
2023-05-18T05:07:51.803Z,7.80
2023-05-18T05:10:20.328Z,7.90
2023-05-18T05:12:49.451Z,8.10
2023-05-18T05:15:18.087Z,8.20
2023-05-18T05:17:47.156Z,8.30
2023-05-18T05:20:14.509Z,8.50
2023-05-18T05:22:42.683Z,8.60
2023-05-18T05:25:11.989Z,8.70
2023-05-18T05:27:39.732Z,8.90
2023-05-18T05:30:07.598Z,8.90
2023-05-18T05:32:36.913Z,9.00
2023-05-18T05:35:06.172Z,9.10
2023-05-18T05:37:33.900Z,9.20
2023-05-18T05:40:01.584Z,9.30
2023-05-18T05:42:32.166Z,9.50
2023-05-18T05:44:59.206Z,9.50
2023-05-18T05:47:27.682Z,9.70
2023-05-18T05:49:55.835Z,9.80
2023-05-18T05:52:23.107Z,9.80
2023-05-18T05:54:51.270Z,9.90
2023-05-18T05:57:18.673Z,9.90
2023-05-18T05:59:45.888Z,10.00
2023-05-18T06:02:13.218Z,10.20
2023-05-18T06:04:41.421Z,10.20
2023-05-18T06:07:09.605Z,10.30
2023-05-18T06:09:37.186Z,10.40
2023-05-18T06:12:05.003Z,10.50
2023-05-18T06:14:32.026Z,10.60
2023-05-18T06:16:59.169Z,10.70
2023-05-18T06:19:26.826Z,10.90
2023-05-18T06:21:53.909Z,11.10
2023-05-18T06:24:21.016Z,11.20
2023-05-18T06:27:14.323Z,11.50
2023-05-18T06:29:50.055Z,11.80
2023-05-18T06:32:37.521Z,12.00
2023-05-18T06:35:06.422Z,12.20
2023-05-18T06:37:33.960Z,12.60
2023-05-18T06:40:01.477Z,13.20
2023-05-18T06:42:29.966Z,14.20
2023-05-18T06:45:09.352Z,15.20
2023-05-18T06:47:50.448Z,16.10
2023-05-18T06:50:17.770Z,16.80
2023-05-18T06:52:45.079Z,17.40
2023-05-18T06:55:12.289Z,18.00
2023-05-18T06:57:39.672Z,18.70
2023-05-18T07:00:08.552Z,19.40
2023-05-18T07:02:35.752Z,19.90
2023-05-18T07:05:05.564Z,20.20
2023-05-18T07:07:32.702Z,20.60
2023-05-18T07:09:59.911Z,21.10
2023-05-18T07:12:27.608Z,21.20
2023-05-18T07:14:54.592Z,21.30
2023-05-18T07:17:22.309Z,21.50
2023-05-18T07:19:49.325Z,21.60
2023-05-18T07:22:16.389Z,21.70
2023-05-18T07:24:43.469Z,21.90
2023-05-18T07:27:10.418Z,22.10
2023-05-18T07:29:37.480Z,22.40
2023-05-18T07:32:04.857Z,22.50
2023-05-18T07:34:32.061Z,22.70
2023-05-18T07:36:59.103Z,22.90
2023-05-18T07:39:29.468Z,23.00
2023-05-18T07:41:56.674Z,23.30
2023-05-18T07:44:24.494Z,23.50
2023-05-18T07:46:53.055Z,23.60
2023-05-18T07:49:23.285Z,23.80
2023-05-18T07:51:51.320Z,23.90
2023-05-18T07:54:19.381Z,24.00
2023-05-18T07:56:46.878Z,24.40
2023-05-18T07:59:14.030Z,24.80
2023-05-18T08:01:41.600Z,25.00
2023-05-18T08:04:10.079Z,25.20
2023-05-18T08:06:37.778Z,25.70
2023-05-18T08:09:04.920Z,26.20
2023-05-18T08:11:31.944Z,26.60
2023-05-18T08:13:58.994Z,27.30
2023-05-18T08:16:26.937Z,28.00
2023-05-18T08:18:54.023Z,28.40
2023-05-18T08:21:21.170Z,28.70
2023-05-18T08:23:48.140Z,28.70
2023-05-18T08:26:15.271Z,28.40
2023-05-18T08:28:42.504Z,28.20
2023-05-18T08:31:09.539Z,28.30
2023-05-18T08:33:36.484Z,28.30
2023-05-18T08:36:03.828Z,28.50
2023-05-18T08:38:32.235Z,28.40
2023-05-18T08:41:07.134Z,28.60
2023-05-18T08:43:39.057Z,28.80
2023-05-18T08:46:17.610Z,29.00
2023-05-18T08:48:48.013Z,29.10
2023-05-18T08:51:20.498Z,29.10
2023-05-18T08:53:54.241Z,29.40
2023-05-18T08:56:26.681Z,28.60
2023-05-18T08:58:57.377Z,27.20
2023-05-18T09:01:31.266Z,26.20
2023-05-18T09:04:00.014Z,25.70
2023-05-18T09:06:30.407Z,26.10
2023-05-18T09:08:58.640Z,26.50
2023-05-18T09:11:28.177Z,25.70
2023-05-18T09:13:55.742Z,25.90
2023-05-18T09:16:22.864Z,26.40
2023-05-18T09:18:50.506Z,26.60
2023-05-18T09:21:17.805Z,26.60
2023-05-18T09:23:45.522Z,25.50
2023-05-18T09:26:13.483Z,25.90
2023-05-18T09:28:42.428Z,25.50
2023-05-18T09:31:12.858Z,25.30
2023-05-18T09:33:40.909Z,26.20
2023-05-18T09:36:09.668Z,25.90
2023-05-18T09:38:44.032Z,25.30
2023-05-18T09:41:12.592Z,25.90
2023-05-18T09:43:40.774Z,26.00
2023-05-18T09:46:08.869Z,26.90
2023-05-18T09:48:37.075Z,27.70
2023-05-18T09:51:08.045Z,28.60
2023-05-18T09:53:40.175Z,28.20
2023-05-18T09:56:11.820Z,27.40
2023-05-18T09:58:39.928Z,27.90
2023-05-18T10:01:07.144Z,27.70
2023-05-18T10:03:39.020Z,26.50
2023-05-18T10:06:10.417Z,25.20
2023-05-18T10:08:37.830Z,25.00
2023-05-18T10:11:05.637Z,24.70
2023-05-18T10:13:34.559Z,25.10
2023-05-18T10:16:04.543Z,24.50
2023-05-18T10:18:34.184Z,23.60
2023-05-18T10:21:03.739Z,22.60
2023-05-18T10:23:35.815Z,22.20
2023-05-18T10:26:10.000Z,22.80
2023-05-18T10:28:44.630Z,23.40
2023-05-18T10:31:13.109Z,24.70
2023-05-18T10:33:41.583Z,25.60
2023-05-18T10:36:10.442Z,25.40
2023-05-18T10:38:43.545Z,26.00
2023-05-18T10:41:12.526Z,26.90
2023-05-18T10:43:41.818Z,26.40
2023-05-18T10:46:09.610Z,26.10
2023-05-18T10:48:43.091Z,26.70
2023-05-18T10:51:10.862Z,27.40
2023-05-18T10:53:39.789Z,28.00
2023-05-18T10:56:13.517Z,28.60
2023-05-18T10:58:44.119Z,29.00
2023-05-18T11:01:12.930Z,29.30
2023-05-18T11:03:42.034Z,29.70
2023-05-18T11:06:11.607Z,29.50
2023-05-18T11:08:48.353Z,28.60
2023-05-18T11:11:18.674Z,29.20
2023-05-18T11:13:49.942Z,28.30
2023-05-18T11:16:24.154Z,27.60
2023-05-18T11:19:04.738Z,27.90
2023-05-18T11:21:51.744Z,28.20
2023-05-18T11:24:35.543Z,28.80
2023-05-18T11:27:15.362Z,28.90
2023-05-18T11:29:46.681Z,28.70
2023-05-18T11:32:29.759Z,28.40
2023-05-18T11:34:58.289Z,28.40
2023-05-18T11:37:41.088Z,28.40
2023-05-18T11:40:13.623Z,28.40
2023-05-18T11:42:40.756Z,28.50
2023-05-18T11:45:08.809Z,28.80
2023-05-18T11:47:36.904Z,29.00
2023-05-18T11:50:08.535Z,29.20
2023-05-18T11:52:47.330Z,29.30
2023-05-18T11:55:16.526Z,29.20
2023-05-18T11:57:47.451Z,29.00
2023-05-18T12:00:16.239Z,28.40
2023-05-18T12:02:46.103Z,27.80
2023-05-18T12:05:14.095Z,27.60
2023-05-18T12:07:41.839Z,27.50
2023-05-18T12:10:14.758Z,27.50
2023-05-18T12:12:43.046Z,27.90
2023-05-18T12:15:11.930Z,27.80
2023-05-18T12:17:40.729Z,27.20
2023-05-18T12:20:09.884Z,26.80
2023-05-18T12:22:37.621Z,26.50
2023-05-18T12:25:05.066Z,26.30
2023-05-18T12:27:37.678Z,26.30
2023-05-18T12:30:05.433Z,26.20
2023-05-18T12:32:32.774Z,25.70
2023-05-18T12:35:00.384Z,25.10
2023-05-18T12:37:34.073Z,24.60
2023-05-18T12:40:07.167Z,23.80
2023-05-18T12:42:35.212Z,22.80
2023-05-18T12:45:03.462Z,22.30
2023-05-18T12:47:33.916Z,22.10
2023-05-18T12:50:04.639Z,21.90
2023-05-18T12:52:32.564Z,21.80
2023-05-18T12:55:00.142Z,21.50
2023-05-18T12:57:30.616Z,21.40
2023-05-18T12:59:58.346Z,21.70
2023-05-18T13:02:31.503Z,22.20
2023-05-18T13:05:23.259Z,22.30
2023-05-18T13:07:50.862Z,22.10
2023-05-18T13:10:19.906Z,21.80
2023-05-18T13:12:52.007Z,21.50
2023-05-18T13:15:24.497Z,21.30
2023-05-18T13:18:03.129Z,21.00
2023-05-18T13:20:54.937Z,20.70
2023-05-18T13:23:29.344Z,20.40
2023-05-18T13:25:58.851Z,20.30
2023-05-18T13:28:43.217Z,20.20
2023-05-18T13:31:13.773Z,20.10
2023-05-18T13:33:45.161Z,20.00
2023-05-18T13:36:12.946Z,20.00
2023-05-18T13:38:40.430Z,19.90
2023-05-18T13:41:09.836Z,20.00
2023-05-18T13:43:37.237Z,20.10
2023-05-18T13:46:04.663Z,20.00
2023-05-18T13:48:34.545Z,19.80
2023-05-18T13:51:01.941Z,19.70
2023-05-18T13:53:29.413Z,19.60
2023-05-18T13:55:56.605Z,19.50
2023-05-18T13:58:23.939Z,19.20
2023-05-18T14:00:51.118Z,19.00
2023-05-18T14:03:18.315Z,18.90
2023-05-18T14:05:45.573Z,18.80
2023-05-18T14:08:12.862Z,18.70
2023-05-18T14:10:40.734Z,18.60
2023-05-18T14:13:09.395Z,18.50
2023-05-18T14:15:36.758Z,18.40
2023-05-18T14:18:04.455Z,18.30
2023-05-18T14:20:32.055Z,18.20
2023-05-18T14:23:00.268Z,18.20
2023-05-18T14:25:27.456Z,18.20
2023-05-18T14:27:54.526Z,18.20
2023-05-18T14:30:21.668Z,18.30
2023-05-18T14:32:48.683Z,18.40
2023-05-18T14:35:15.852Z,18.40
2023-05-18T14:37:42.946Z,18.30
2023-05-18T14:40:10.868Z,18.20
2023-05-18T14:42:37.849Z,18.10
2023-05-18T14:45:05.720Z,18.00
2023-05-18T14:47:32.823Z,18.10
2023-05-18T14:49:59.831Z,18.10
2023-05-18T14:52:26.832Z,18.20
2023-05-18T14:54:54.143Z,18.10
2023-05-18T14:57:21.335Z,18.00
2023-05-18T14:59:48.348Z,18.00
2023-05-18T15:02:15.447Z,17.90
2023-05-18T15:04:42.390Z,17.80
2023-05-18T15:07:10.624Z,17.70
2023-05-18T15:09:37.626Z,17.70
2023-05-18T15:12:05.105Z,17.60
2023-05-18T15:14:32.065Z,17.60
2023-05-18T15:16:59.218Z,17.60
2023-05-18T15:19:26.383Z,17.60
2023-05-18T15:21:53.336Z,17.70
2023-05-18T15:24:20.240Z,17.70
2023-05-18T15:26:47.475Z,17.70
2023-05-18T15:29:14.472Z,17.80
2023-05-18T15:31:41.475Z,17.90
2023-05-18T15:34:10.438Z,17.90
2023-05-18T15:36:38.307Z,17.90
2023-05-18T15:39:05.301Z,17.80
2023-05-18T15:41:36.030Z,17.70
2023-05-18T15:44:04.097Z,17.70
2023-05-18T15:46:32.239Z,17.60
2023-05-18T15:48:59.308Z,17.40
2023-05-18T15:51:26.422Z,17.20
2023-05-18T15:53:53.598Z,17.00
2023-05-18T15:56:21.966Z,16.90
2023-05-18T15:58:49.016Z,16.80
2023-05-18T16:01:16.058Z,16.60
2023-05-18T16:03:43.942Z,16.50
2023-05-18T16:06:10.970Z,16.40
2023-05-18T16:08:38.052Z,16.30
2023-05-18T16:11:07.082Z,16.30
2023-05-18T16:13:34.120Z,16.20
2023-05-18T16:16:01.088Z,16.10
2023-05-18T16:18:28.212Z,16.00
2023-05-18T16:20:55.239Z,16.00
2023-05-18T16:23:28.169Z,15.90
2023-05-18T16:26:00.023Z,15.80
2023-05-18T16:28:27.123Z,15.70
2023-05-18T16:30:54.136Z,15.70
2023-05-18T16:33:25.808Z,15.60
2023-05-18T16:35:53.122Z,15.60
2023-05-18T16:38:20.316Z,15.60
2023-05-18T16:40:47.394Z,15.50
2023-05-18T16:43:14.475Z,15.50
2023-05-18T16:45:42.540Z,15.40
2023-05-18T16:48:09.639Z,15.40
2023-05-18T16:50:37.736Z,15.30
2023-05-18T16:53:05.532Z,15.20
2023-05-18T16:55:32.688Z,15.20
2023-05-18T16:57:59.751Z,15.10
2023-05-18T17:00:26.904Z,15.10
2023-05-18T17:02:54.118Z,15.00
2023-05-18T17:05:24.000Z,15.00
2023-05-18T17:07:51.728Z,14.90
2023-05-18T17:10:19.515Z,14.90
2023-05-18T17:12:46.675Z,14.90
2023-05-18T17:15:14.188Z,14.80
2023-05-18T17:17:42.297Z,14.80
2023-05-18T17:20:11.221Z,14.70
2023-05-18T17:22:38.370Z,14.60
2023-05-18T17:25:05.907Z,14.60
2023-05-18T17:27:33.092Z,14.50
2023-05-18T17:30:00.357Z,14.50
2023-05-18T17:32:27.587Z,14.40
2023-05-18T17:34:54.726Z,14.40
2023-05-18T17:37:21.958Z,14.40
2023-05-18T17:39:49.059Z,14.30
2023-05-18T17:42:16.321Z,14.30
2023-05-18T17:44:44.615Z,14.20
2023-05-18T17:47:13.409Z,14.20
2023-05-18T17:49:40.888Z,14.10
2023-05-18T17:52:07.965Z,14.10
2023-05-18T17:54:35.492Z,14.00
2023-05-18T17:57:02.459Z,14.00
2023-05-18T17:59:30.086Z,14.00
2023-05-18T18:01:57.433Z,13.90
2023-05-18T18:04:24.501Z,13.90
2023-05-18T18:06:54.541Z,13.90
2023-05-18T18:09:22.281Z,13.90
2023-05-18T18:11:50.074Z,13.90
2023-05-18T18:14:17.508Z,13.90
2023-05-18T18:16:45.738Z,13.90
2023-05-18T18:19:13.950Z,13.90
2023-05-18T18:21:41.363Z,13.90
2023-05-18T18:24:08.356Z,13.90
2023-05-18T18:26:40.761Z,13.90
2023-05-18T18:29:08.467Z,13.90
2023-05-18T18:31:36.039Z,13.90
2023-05-18T18:34:04.574Z,13.90
2023-05-18T18:36:32.663Z,13.90
2023-05-18T18:39:00.254Z,13.80
2023-05-18T18:41:27.984Z,13.70
2023-05-18T18:43:57.137Z,13.70
2023-05-18T18:46:24.991Z,13.60
2023-05-18T18:48:52.346Z,13.60
2023-05-18T18:51:20.580Z,13.50
2023-05-18T18:53:48.154Z,13.50
2023-05-18T18:56:16.069Z,13.50
2023-05-18T18:58:43.853Z,13.50
2023-05-18T19:01:11.904Z,13.40
2023-05-18T19:03:39.041Z,13.40
2023-05-18T19:06:11.759Z,13.40
2023-05-18T19:08:38.911Z,13.30
2023-05-18T19:11:06.225Z,13.30
2023-05-18T19:13:33.291Z,13.20
2023-05-18T19:16:00.767Z,13.20
2023-05-18T19:18:28.063Z,13.20
2023-05-18T19:20:55.055Z,13.10
2023-05-18T19:23:22.173Z,13.10
2023-05-18T19:25:49.154Z,13.10
2023-05-18T19:28:16.291Z,13.00
2023-05-18T19:30:43.524Z,13.00
2023-05-18T19:33:10.902Z,13.00
2023-05-18T19:35:38.025Z,13.00
2023-05-18T19:38:05.198Z,13.00
2023-05-18T19:40:32.491Z,13.00
2023-05-18T19:43:00.032Z,13.00
2023-05-18T19:45:27.301Z,13.00
2023-05-18T19:47:54.632Z,13.00
2023-05-18T19:50:22.027Z,13.00
2023-05-18T19:52:49.704Z,13.00
2023-05-18T19:55:17.456Z,13.10
2023-05-18T19:57:44.450Z,13.10
2023-05-18T20:00:11.816Z,13.10
2023-05-18T20:02:41.808Z,13.00
2023-05-18T20:05:12.745Z,13.00
2023-05-18T20:07:39.933Z,13.00
2023-05-18T20:10:07.059Z,13.00
2023-05-18T20:12:34.121Z,13.00
2023-05-18T20:15:01.087Z,13.00
2023-05-18T20:17:28.063Z,12.90
2023-05-18T20:19:55.073Z,12.90
2023-05-18T20:22:22.201Z,12.90
2023-05-18T20:24:49.841Z,12.90
2023-05-18T20:27:17.025Z,12.90
2023-05-18T20:29:44.122Z,12.80
2023-05-18T20:32:11.232Z,12.80
2023-05-18T20:34:38.293Z,12.80
2023-05-18T20:37:08.494Z,12.80
2023-05-18T20:39:39.909Z,12.70
2023-05-18T20:42:07.502Z,12.70
2023-05-18T20:44:35.064Z,12.60
2023-05-18T20:47:02.718Z,12.60
2023-05-18T20:49:29.980Z,12.60
2023-05-18T20:51:57.180Z,12.50
2023-05-18T20:54:24.432Z,12.50
2023-05-18T20:56:51.884Z,12.50
2023-05-18T20:59:19.200Z,12.40
2023-05-18T21:01:46.268Z,12.30
2023-05-18T21:04:14.220Z,12.30
2023-05-18T21:06:44.108Z,12.30
2023-05-18T21:09:11.976Z,12.20
2023-05-18T21:11:39.986Z,12.20
2023-05-18T21:14:07.055Z,12.10
2023-05-18T21:16:35.388Z,12.10
2023-05-18T21:19:02.485Z,12.10
2023-05-18T21:21:29.556Z,12.00
2023-05-18T21:23:56.428Z,12.00
2023-05-18T21:26:23.415Z,11.90
2023-05-18T21:28:50.438Z,11.90
2023-05-18T21:31:17.579Z,11.80
2023-05-18T21:33:48.006Z,11.80
2023-05-18T21:36:15.740Z,11.70
2023-05-18T21:38:42.891Z,11.70
2023-05-18T21:41:09.847Z,11.60
2023-05-18T21:43:36.777Z,11.60
2023-05-18T21:46:04.017Z,11.60
2023-05-18T21:48:30.961Z,11.60
2023-05-18T21:50:57.826Z,11.60
2023-05-18T21:53:26.555Z,11.60
2023-05-18T21:55:53.645Z,11.70
2023-05-18T21:58:21.360Z,11.70
2023-05-18T22:00:48.383Z,11.70
2023-05-18T22:03:15.548Z,11.70
2023-05-18T22:05:44.717Z,11.60
2023-05-18T22:08:12.312Z,11.70
2023-05-18T22:10:39.288Z,11.60
2023-05-18T22:13:06.302Z,11.60
2023-05-18T22:15:35.995Z,11.60
2023-05-18T22:18:04.111Z,11.50
2023-05-18T22:20:34.168Z,11.40
2023-05-18T22:23:01.311Z,11.40
2023-05-18T22:25:28.323Z,11.30
2023-05-18T22:27:55.967Z,11.20
2023-05-18T22:30:27.757Z,11.20
2023-05-18T22:32:55.182Z,11.10
2023-05-18T22:35:22.085Z,11.00
2023-05-18T22:37:48.961Z,11.00
2023-05-18T22:40:15.967Z,10.90
2023-05-18T22:42:42.861Z,10.90
2023-05-18T22:45:11.980Z,10.80
2023-05-18T22:47:39.679Z,10.80
2023-05-18T22:50:07.813Z,10.70
2023-05-18T22:52:36.708Z,10.70
2023-05-18T22:55:05.458Z,10.70
2023-05-18T22:57:32.388Z,10.70
2023-05-18T22:59:59.328Z,10.60
2023-05-18T23:02:27.283Z,10.60
2023-05-18T23:04:54.312Z,10.60
2023-05-18T23:07:22.244Z,10.50
2023-05-18T23:09:49.131Z,10.50
2023-05-18T23:12:16.035Z,10.50
2023-05-18T23:14:44.642Z,10.50
2023-05-18T23:17:14.159Z,10.50
2023-05-18T23:19:43.739Z,10.50
2023-05-18T23:22:11.293Z,10.50
2023-05-18T23:24:38.180Z,10.50
2023-05-18T23:27:05.575Z,10.40
2023-05-18T23:29:32.559Z,10.40
2023-05-18T23:31:59.885Z,10.40
2023-05-18T23:34:27.626Z,10.40
2023-05-18T23:36:57.410Z,10.40
2023-05-18T23:39:26.731Z,10.40
2023-05-18T23:41:57.972Z,10.40
2023-05-18T23:44:25.788Z,10.50
2023-05-18T23:46:53.367Z,10.50
2023-05-18T23:49:20.784Z,10.50
2023-05-18T23:51:51.462Z,10.50
2023-05-18T23:54:18.867Z,10.50
2023-05-18T23:56:46.181Z,10.50
2023-05-18T23:59:15.107Z,10.40
